sensor_id;sensor_type;location;lat;lon;timestamp;pressure;altitude;pressure_sealevel;temperature
4421;BMP180;11824;51.178;13.546;2023-01-13T00:00:04;99450.00;;;10.70
4421;BMP180;11824;51.178;13.546;2023-01-13T00:02:32;99447.00;;;10.70
4421;BMP180;11824;51.178;13.546;2023-01-13T00:05:00;99437.00;;;10.70
4421;BMP180;11824;51.178;13.546;2023-01-13T00:07:27;99437.00;;;10.70
4421;BMP180;11824;51.178;13.546;2023-01-13T00:09:55;99452.00;;;10.70
4421;BMP180;11824;51.178;13.546;2023-01-13T00:12:22;99438.00;;;10.80
4421;BMP180;11824;51.178;13.546;2023-01-13T00:14:50;99452.00;;;10.80
4421;BMP180;11824;51.178;13.546;2023-01-13T00:17:17;99450.00;;;10.80
4421;BMP180;11824;51.178;13.546;2023-01-13T00:19:44;99453.00;;;10.80
4421;BMP180;11824;51.178;13.546;2023-01-13T00:22:12;99446.00;;;10.80
4421;BMP180;11824;51.178;13.546;2023-01-13T00:24:39;99447.00;;;10.80
4421;BMP180;11824;51.178;13.546;2023-01-13T00:27:07;99447.00;;;10.80
4421;BMP180;11824;51.178;13.546;2023-01-13T00:29:34;99450.00;;;10.80
4421;BMP180;11824;51.178;13.546;2023-01-13T00:32:02;99441.00;;;10.80
4421;BMP180;11824;51.178;13.546;2023-01-13T00:34:29;99437.00;;;10.80
4421;BMP180;11824;51.178;13.546;2023-01-13T00:36:56;99434.00;;;10.80
4421;BMP180;11824;51.178;13.546;2023-01-13T00:39:24;99445.00;;;10.80
4421;BMP180;11824;51.178;13.546;2023-01-13T00:41:51;99437.00;;;10.80
4421;BMP180;11824;51.178;13.546;2023-01-13T00:44:37;99428.00;;;10.80
4421;BMP180;11824;51.178;13.546;2023-01-13T00:47:04;99429.00;;;10.80
4421;BMP180;11824;51.178;13.546;2023-01-13T00:49:32;99434.00;;;10.80
4421;BMP180;11824;51.178;13.546;2023-01-13T00:51:59;99421.00;;;10.80
4421;BMP180;11824;51.178;13.546;2023-01-13T00:54:26;99433.00;;;10.80
4421;BMP180;11824;51.178;13.546;2023-01-13T00:56:54;99438.00;;;10.80
4421;BMP180;11824;51.178;13.546;2023-01-13T00:59:21;99433.00;;;10.80
4421;BMP180;11824;51.178;13.546;2023-01-13T01:01:49;99432.00;;;10.80
4421;BMP180;11824;51.178;13.546;2023-01-13T01:04:17;99428.00;;;10.80
4421;BMP180;11824;51.178;13.546;2023-01-13T01:06:44;99430.00;;;10.80
4421;BMP180;11824;51.178;13.546;2023-01-13T01:09:13;99433.00;;;10.80
4421;BMP180;11824;51.178;13.546;2023-01-13T01:11:41;99429.00;;;10.80
4421;BMP180;11824;51.178;13.546;2023-01-13T01:14:10;99426.00;;;10.70
4421;BMP180;11824;51.178;13.546;2023-01-13T01:16:39;99427.00;;;10.70
4421;BMP180;11824;51.178;13.546;2023-01-13T01:19:08;99424.00;;;10.70
4421;BMP180;11824;51.178;13.546;2023-01-13T01:21:36;99430.00;;;10.70
4421;BMP180;11824;51.178;13.546;2023-01-13T01:24:04;99432.00;;;10.70
4421;BMP180;11824;51.178;13.546;2023-01-13T01:26:32;99420.00;;;10.70
4421;BMP180;11824;51.178;13.546;2023-01-13T01:28:59;99422.00;;;10.70
4421;BMP180;11824;51.178;13.546;2023-01-13T01:31:29;99416.00;;;10.70
4421;BMP180;11824;51.178;13.546;2023-01-13T01:33:57;99412.00;;;10.70
4421;BMP180;11824;51.178;13.546;2023-01-13T01:36:26;99419.00;;;10.70
4421;BMP180;11824;51.178;13.546;2023-01-13T01:38:56;99416.00;;;10.70
4421;BMP180;11824;51.178;13.546;2023-01-13T01:41:26;99406.00;;;10.70
4421;BMP180;11824;51.178;13.546;2023-01-13T01:43:55;99408.00;;;10.70
4421;BMP180;11824;51.178;13.546;2023-01-13T01:46:27;99400.00;;;10.70
4421;BMP180;11824;51.178;13.546;2023-01-13T01:48:58;99411.00;;;10.70
4421;BMP180;11824;51.178;13.546;2023-01-13T01:51:31;99411.00;;;10.70
4421;BMP180;11824;51.178;13.546;2023-01-13T01:54:03;99404.00;;;10.70
4421;BMP180;11824;51.178;13.546;2023-01-13T01:56:33;99408.00;;;10.70
4421;BMP180;11824;51.178;13.546;2023-01-13T01:59:01;99400.00;;;10.70
4421;BMP180;11824;51.178;13.546;2023-01-13T02:01:28;99406.00;;;10.70
4421;BMP180;11824;51.178;13.546;2023-01-13T02:04:00;99408.00;;;10.80
4421;BMP180;11824;51.178;13.546;2023-01-13T02:06:30;99402.00;;;10.80
4421;BMP180;11824;51.178;13.546;2023-01-13T02:08:58;99375.00;;;10.80
4421;BMP180;11824;51.178;13.546;2023-01-13T02:11:27;99391.00;;;10.80
4421;BMP180;11824;51.178;13.546;2023-01-13T02:14:14;99380.00;;;10.80
4421;BMP180;11824;51.178;13.546;2023-01-13T02:16:48;99383.00;;;10.80
4421;BMP180;11824;51.178;13.546;2023-01-13T02:19:40;99381.00;;;10.80
4421;BMP180;11824;51.178;13.546;2023-01-13T02:22:43;99374.00;;;10.80
4421;BMP180;11824;51.178;13.546;2023-01-13T02:25:35;99373.00;;;10.80
4421;BMP180;11824;51.178;13.546;2023-01-13T02:28:20;99376.00;;;10.80
4421;BMP180;11824;51.178;13.546;2023-01-13T02:30:56;99373.00;;;10.80
4421;BMP180;11824;51.178;13.546;2023-01-13T02:33:51;99369.00;;;10.90
4421;BMP180;11824;51.178;13.546;2023-01-13T02:36:29;99368.00;;;10.90
4421;BMP180;11824;51.178;13.546;2023-01-13T02:39:02;99366.00;;;10.90
4421;BMP180;11824;51.178;13.546;2023-01-13T02:41:37;99365.00;;;10.90
4421;BMP180;11824;51.178;13.546;2023-01-13T02:44:25;99371.00;;;10.90
4421;BMP180;11824;51.178;13.546;2023-01-13T02:46:58;99362.00;;;10.90
4421;BMP180;11824;51.178;13.546;2023-01-13T02:49:32;99355.00;;;10.90
4421;BMP180;11824;51.178;13.546;2023-01-13T02:52:06;99349.00;;;10.90
4421;BMP180;11824;51.178;13.546;2023-01-13T02:54:37;99342.00;;;10.90
4421;BMP180;11824;51.178;13.546;2023-01-13T02:57:07;99342.00;;;10.90
4421;BMP180;11824;51.178;13.546;2023-01-13T02:59:35;99339.00;;;10.90
4421;BMP180;11824;51.178;13.546;2023-01-13T03:02:05;99343.00;;;10.90
4421;BMP180;11824;51.178;13.546;2023-01-13T03:04:47;99345.00;;;10.90
4421;BMP180;11824;51.178;13.546;2023-01-13T03:07:29;99352.00;;;10.90
4421;BMP180;11824;51.178;13.546;2023-01-13T03:10:06;99355.00;;;10.90
4421;BMP180;11824;51.178;13.546;2023-01-13T03:12:42;99353.00;;;10.90
4421;BMP180;11824;51.178;13.546;2023-01-13T03:15:16;99354.00;;;10.90
4421;BMP180;11824;51.178;13.546;2023-01-13T03:17:54;99356.00;;;10.90
4421;BMP180;11824;51.178;13.546;2023-01-13T03:20:31;99347.00;;;10.90
4421;BMP180;11824;51.178;13.546;2023-01-13T03:23:04;99362.00;;;10.90
4421;BMP180;11824;51.178;13.546;2023-01-13T03:25:35;99352.00;;;10.90
4421;BMP180;11824;51.178;13.546;2023-01-13T03:28:07;99360.00;;;11.00
4421;BMP180;11824;51.178;13.546;2023-01-13T03:30:39;99354.00;;;11.00
4421;BMP180;11824;51.178;13.546;2023-01-13T03:33:11;99350.00;;;11.00
4421;BMP180;11824;51.178;13.546;2023-01-13T03:35:44;99348.00;;;11.00
4421;BMP180;11824;51.178;13.546;2023-01-13T03:38:13;99343.00;;;11.00
4421;BMP180;11824;51.178;13.546;2023-01-13T03:40:46;99350.00;;;11.00
4421;BMP180;11824;51.178;13.546;2023-01-13T03:43:18;99345.00;;;11.10
4421;BMP180;11824;51.178;13.546;2023-01-13T03:46:09;99339.00;;;11.10
4421;BMP180;11824;51.178;13.546;2023-01-13T03:48:41;99348.00;;;11.10
4421;BMP180;11824;51.178;13.546;2023-01-13T03:51:16;99347.00;;;11.10
4421;BMP180;11824;51.178;13.546;2023-01-13T03:53:48;99342.00;;;11.10
4421;BMP180;11824;51.178;13.546;2023-01-13T03:56:22;99341.00;;;11.10
4421;BMP180;11824;51.178;13.546;2023-01-13T03:58:52;99347.00;;;11.10
4421;BMP180;11824;51.178;13.546;2023-01-13T04:01:23;99346.00;;;11.10
4421;BMP180;11824;51.178;13.546;2023-01-13T04:03:55;99343.00;;;11.10
4421;BMP180;11824;51.178;13.546;2023-01-13T04:06:29;99355.00;;;11.10
4421;BMP180;11824;51.178;13.546;2023-01-13T04:09:03;99345.00;;;11.10
4421;BMP180;11824;51.178;13.546;2023-01-13T04:11:36;99348.00;;;11.10
4421;BMP180;11824;51.178;13.546;2023-01-13T04:14:06;99350.00;;;11.10
4421;BMP180;11824;51.178;13.546;2023-01-13T04:16:35;99352.00;;;11.10
4421;BMP180;11824;51.178;13.546;2023-01-13T04:19:04;99344.00;;;11.10
4421;BMP180;11824;51.178;13.546;2023-01-13T04:21:34;99353.00;;;11.10
4421;BMP180;11824;51.178;13.546;2023-01-13T04:24:01;99346.00;;;11.10
4421;BMP180;11824;51.178;13.546;2023-01-13T04:26:28;99348.00;;;11.10
4421;BMP180;11824;51.178;13.546;2023-01-13T04:28:56;99348.00;;;11.10
4421;BMP180;11824;51.178;13.546;2023-01-13T04:31:23;99345.00;;;11.10
4421;BMP180;11824;51.178;13.546;2023-01-13T04:33:50;99348.00;;;11.10
4421;BMP180;11824;51.178;13.546;2023-01-13T04:36:18;99354.00;;;11.10
4421;BMP180;11824;51.178;13.546;2023-01-13T04:38:50;99351.00;;;11.10
4421;BMP180;11824;51.178;13.546;2023-01-13T04:41:18;99343.00;;;11.10
4421;BMP180;11824;51.178;13.546;2023-01-13T04:43:45;99342.00;;;11.10
4421;BMP180;11824;51.178;13.546;2023-01-13T04:46:13;99343.00;;;11.10
4421;BMP180;11824;51.178;13.546;2023-01-13T04:48:40;99352.00;;;11.10
4421;BMP180;11824;51.178;13.546;2023-01-13T04:51:07;99337.00;;;11.10
4421;BMP180;11824;51.178;13.546;2023-01-13T04:53:35;99345.00;;;11.20
4421;BMP180;11824;51.178;13.546;2023-01-13T04:56:02;99340.00;;;11.20
4421;BMP180;11824;51.178;13.546;2023-01-13T04:58:30;99341.00;;;11.20
4421;BMP180;11824;51.178;13.546;2023-01-13T05:00:57;99333.00;;;11.20
4421;BMP180;11824;51.178;13.546;2023-01-13T05:03:25;99340.00;;;11.20
4421;BMP180;11824;51.178;13.546;2023-01-13T05:05:52;99338.00;;;11.20
4421;BMP180;11824;51.178;13.546;2023-01-13T05:08:19;99340.00;;;11.20
4421;BMP180;11824;51.178;13.546;2023-01-13T05:10:47;99333.00;;;11.10
4421;BMP180;11824;51.178;13.546;2023-01-13T05:13:15;99324.00;;;11.10
4421;BMP180;11824;51.178;13.546;2023-01-13T05:16:00;99341.00;;;11.20
4421;BMP180;11824;51.178;13.546;2023-01-13T05:18:45;99326.00;;;11.10
4421;BMP180;11824;51.178;13.546;2023-01-13T05:21:12;99334.00;;;11.10
4421;BMP180;11824;51.178;13.546;2023-01-13T05:23:54;99329.00;;;11.10
4421;BMP180;11824;51.178;13.546;2023-01-13T05:26:40;99325.00;;;11.10
4421;BMP180;11824;51.178;13.546;2023-01-13T05:29:07;99325.00;;;11.10
4421;BMP180;11824;51.178;13.546;2023-01-13T05:31:35;99325.00;;;11.10
4421;BMP180;11824;51.178;13.546;2023-01-13T05:34:02;99326.00;;;11.10
4421;BMP180;11824;51.178;13.546;2023-01-13T05:36:29;99320.00;;;11.10
4421;BMP180;11824;51.178;13.546;2023-01-13T05:38:56;99321.00;;;11.00
4421;BMP180;11824;51.178;13.546;2023-01-13T05:41:24;99308.00;;;11.00
4421;BMP180;11824;51.178;13.546;2023-01-13T05:44:10;99314.00;;;11.00
4421;BMP180;11824;51.178;13.546;2023-01-13T05:46:37;99315.00;;;11.00
4421;BMP180;11824;51.178;13.546;2023-01-13T05:49:06;99317.00;;;11.00
4421;BMP180;11824;51.178;13.546;2023-01-13T05:51:33;99328.00;;;11.00
4421;BMP180;11824;51.178;13.546;2023-01-13T05:54:00;99319.00;;;11.00
4421;BMP180;11824;51.178;13.546;2023-01-13T05:56:27;99309.00;;;10.90
4421;BMP180;11824;51.178;13.546;2023-01-13T05:58:55;99314.00;;;10.90
4421;BMP180;11824;51.178;13.546;2023-01-13T06:01:23;99322.00;;;10.90
4421;BMP180;11824;51.178;13.546;2023-01-13T06:03:50;99321.00;;;10.90
4421;BMP180;11824;51.178;13.546;2023-01-13T06:06:17;99321.00;;;10.90
4421;BMP180;11824;51.178;13.546;2023-01-13T06:08:44;99321.00;;;10.90
4421;BMP180;11824;51.178;13.546;2023-01-13T06:11:12;99332.00;;;10.90
4421;BMP180;11824;51.178;13.546;2023-01-13T06:13:39;99324.00;;;10.90
4421;BMP180;11824;51.178;13.546;2023-01-13T06:16:07;99327.00;;;10.90
4421;BMP180;11824;51.178;13.546;2023-01-13T06:18:36;99328.00;;;11.00
4421;BMP180;11824;51.178;13.546;2023-01-13T06:21:03;99317.00;;;10.90
4421;BMP180;11824;51.178;13.546;2023-01-13T06:23:31;99318.00;;;11.00
4421;BMP180;11824;51.178;13.546;2023-01-13T06:26:04;99331.00;;;11.00
4421;BMP180;11824;51.178;13.546;2023-01-13T06:28:34;99329.00;;;11.00
4421;BMP180;11824;51.178;13.546;2023-01-13T06:31:04;99319.00;;;11.00
4421;BMP180;11824;51.178;13.546;2023-01-13T06:33:34;99323.00;;;11.00
4421;BMP180;11824;51.178;13.546;2023-01-13T06:36:08;99322.00;;;11.00
4421;BMP180;11824;51.178;13.546;2023-01-13T06:38:39;99335.00;;;11.00
4421;BMP180;11824;51.178;13.546;2023-01-13T06:41:07;99326.00;;;11.00
4421;BMP180;11824;51.178;13.546;2023-01-13T06:43:35;99329.00;;;11.00
4421;BMP180;11824;51.178;13.546;2023-01-13T06:46:03;99333.00;;;11.00
4421;BMP180;11824;51.178;13.546;2023-01-13T06:48:32;99323.00;;;11.00
4421;BMP180;11824;51.178;13.546;2023-01-13T06:51:01;99340.00;;;11.00
4421;BMP180;11824;51.178;13.546;2023-01-13T06:53:29;99339.00;;;11.00
4421;BMP180;11824;51.178;13.546;2023-01-13T06:55:56;99344.00;;;11.10
4421;BMP180;11824;51.178;13.546;2023-01-13T06:58:23;99353.00;;;11.10
4421;BMP180;11824;51.178;13.546;2023-01-13T07:00:51;99361.00;;;11.10
4421;BMP180;11824;51.178;13.546;2023-01-13T07:03:19;99348.00;;;11.10
4421;BMP180;11824;51.178;13.546;2023-01-13T07:05:51;99355.00;;;11.10
4421;BMP180;11824;51.178;13.546;2023-01-13T07:08:19;99359.00;;;11.10
4421;BMP180;11824;51.178;13.546;2023-01-13T07:10:47;99352.00;;;11.20
4421;BMP180;11824;51.178;13.546;2023-01-13T07:13:14;99363.00;;;11.10
4421;BMP180;11824;51.178;13.546;2023-01-13T07:16:03;99364.00;;;11.20
4421;BMP180;11824;51.178;13.546;2023-01-13T07:18:31;99365.00;;;11.20
4421;BMP180;11824;51.178;13.546;2023-01-13T07:21:00;99359.00;;;11.20
4421;BMP180;11824;51.178;13.546;2023-01-13T07:23:29;99354.00;;;11.20
4421;BMP180;11824;51.178;13.546;2023-01-13T07:25:58;99346.00;;;11.20
4421;BMP180;11824;51.178;13.546;2023-01-13T07:28:25;99349.00;;;11.20
4421;BMP180;11824;51.178;13.546;2023-01-13T07:30:53;99337.00;;;11.20
4421;BMP180;11824;51.178;13.546;2023-01-13T07:33:21;99344.00;;;11.20
4421;BMP180;11824;51.178;13.546;2023-01-13T07:35:54;99342.00;;;11.20
4421;BMP180;11824;51.178;13.546;2023-01-13T07:38:22;99342.00;;;11.20
4421;BMP180;11824;51.178;13.546;2023-01-13T07:40:49;99352.00;;;11.20
4421;BMP180;11824;51.178;13.546;2023-01-13T07:43:17;99356.00;;;11.20
4421;BMP180;11824;51.178;13.546;2023-01-13T07:46:00;99354.00;;;11.20
4421;BMP180;11824;51.178;13.546;2023-01-13T07:48:29;99351.00;;;11.20
4421;BMP180;11824;51.178;13.546;2023-01-13T07:51:01;99349.00;;;11.20
4421;BMP180;11824;51.178;13.546;2023-01-13T07:53:28;99350.00;;;11.30
4421;BMP180;11824;51.178;13.546;2023-01-13T07:55:56;99357.00;;;11.30
4421;BMP180;11824;51.178;13.546;2023-01-13T07:58:25;99354.00;;;11.30
4421;BMP180;11824;51.178;13.546;2023-01-13T08:00:53;99346.00;;;11.30
4421;BMP180;11824;51.178;13.546;2023-01-13T08:03:20;99353.00;;;11.40
4421;BMP180;11824;51.178;13.546;2023-01-13T08:05:48;99350.00;;;11.40
4421;BMP180;11824;51.178;13.546;2023-01-13T08:08:16;99353.00;;;11.40
4421;BMP180;11824;51.178;13.546;2023-01-13T08:10:44;99342.00;;;11.40
4421;BMP180;11824;51.178;13.546;2023-01-13T08:13:11;99363.00;;;11.40
4421;BMP180;11824;51.178;13.546;2023-01-13T08:15:47;99360.00;;;11.50
4421;BMP180;11824;51.178;13.546;2023-01-13T08:18:15;99363.00;;;11.50
4421;BMP180;11824;51.178;13.546;2023-01-13T08:20:45;99354.00;;;11.50
4421;BMP180;11824;51.178;13.546;2023-01-13T08:23:14;99347.00;;;11.50
4421;BMP180;11824;51.178;13.546;2023-01-13T08:25:41;99347.00;;;11.50
4421;BMP180;11824;51.178;13.546;2023-01-13T08:28:09;99365.00;;;11.50
4421;BMP180;11824;51.178;13.546;2023-01-13T08:30:37;99354.00;;;11.50
4421;BMP180;11824;51.178;13.546;2023-01-13T08:33:07;99357.00;;;11.50
4421;BMP180;11824;51.178;13.546;2023-01-13T08:35:35;99358.00;;;11.50
4421;BMP180;11824;51.178;13.546;2023-01-13T08:38:03;99362.00;;;11.50
4421;BMP180;11824;51.178;13.546;2023-01-13T08:40:31;99365.00;;;11.50
4421;BMP180;11824;51.178;13.546;2023-01-13T08:42:59;99361.00;;;11.50
4421;BMP180;11824;51.178;13.546;2023-01-13T08:45:27;99355.00;;;11.50
4421;BMP180;11824;51.178;13.546;2023-01-13T08:47:54;99356.00;;;11.50
4421;BMP180;11824;51.178;13.546;2023-01-13T08:50:22;99366.00;;;11.60
4421;BMP180;11824;51.178;13.546;2023-01-13T08:52:50;99363.00;;;11.60
4421;BMP180;11824;51.178;13.546;2023-01-13T08:55:17;99370.00;;;11.60
4421;BMP180;11824;51.178;13.546;2023-01-13T08:57:44;99373.00;;;11.60
4421;BMP180;11824;51.178;13.546;2023-01-13T09:00:13;99402.00;;;11.70
4421;BMP180;11824;51.178;13.546;2023-01-13T09:02:40;99442.00;;;11.70
4421;BMP180;11824;51.178;13.546;2023-01-13T09:05:08;99473.00;;;11.50
4421;BMP180;11824;51.178;13.546;2023-01-13T09:07:37;99480.00;;;11.40
4421;BMP180;11824;51.178;13.546;2023-01-13T09:10:06;99498.00;;;11.20
4421;BMP180;11824;51.178;13.546;2023-01-13T09:12:34;99492.00;;;11.00
4421;BMP180;11824;51.178;13.546;2023-01-13T09:15:20;99490.00;;;10.80
4421;BMP180;11824;51.178;13.546;2023-01-13T09:17:47;99489.00;;;10.70
4421;BMP180;11824;51.178;13.546;2023-01-13T09:20:15;99491.00;;;10.70
4421;BMP180;11824;51.178;13.546;2023-01-13T09:22:43;99486.00;;;10.60
4421;BMP180;11824;51.178;13.546;2023-01-13T09:25:10;99490.00;;;10.60
4421;BMP180;11824;51.178;13.546;2023-01-13T09:27:38;99486.00;;;10.50
4421;BMP180;11824;51.178;13.546;2023-01-13T09:30:07;99489.00;;;10.50
4421;BMP180;11824;51.178;13.546;2023-01-13T09:32:34;99489.00;;;10.40
4421;BMP180;11824;51.178;13.546;2023-01-13T09:35:04;99489.00;;;10.40
4421;BMP180;11824;51.178;13.546;2023-01-13T09:37:33;99509.00;;;10.30
4421;BMP180;11824;51.178;13.546;2023-01-13T09:40:03;99514.00;;;10.30
4421;BMP180;11824;51.178;13.546;2023-01-13T09:42:42;99512.00;;;10.20
4421;BMP180;11824;51.178;13.546;2023-01-13T09:45:31;99513.00;;;10.20
4421;BMP180;11824;51.178;13.546;2023-01-13T09:48:04;99513.00;;;10.10
4421;BMP180;11824;51.178;13.546;2023-01-13T09:50:49;99513.00;;;10.10
4421;BMP180;11824;51.178;13.546;2023-01-13T09:53:22;99500.00;;;10.10
4421;BMP180;11824;51.178;13.546;2023-01-13T09:55:52;99506.00;;;10.10
4421;BMP180;11824;51.178;13.546;2023-01-13T09:58:19;99506.00;;;10.10
4421;BMP180;11824;51.178;13.546;2023-01-13T10:00:57;99524.00;;;10.10
4421;BMP180;11824;51.178;13.546;2023-01-13T10:03:27;99525.00;;;10.10
4421;BMP180;11824;51.178;13.546;2023-01-13T10:06:01;99525.00;;;10.10
4421;BMP180;11824;51.178;13.546;2023-01-13T10:08:34;99521.00;;;10.10
4421;BMP180;11824;51.178;13.546;2023-01-13T10:11:06;99508.00;;;10.10
4421;BMP180;11824;51.178;13.546;2023-01-13T10:13:57;99500.00;;;10.10
4421;BMP180;11824;51.178;13.546;2023-01-13T10:16:32;99495.00;;;10.10
4421;BMP180;11824;51.178;13.546;2023-01-13T10:19:15;99496.00;;;10.10
4421;BMP180;11824;51.178;13.546;2023-01-13T10:22:09;99490.00;;;10.10
4421;BMP180;11824;51.178;13.546;2023-01-13T10:25:00;99482.00;;;10.20
4421;BMP180;11824;51.178;13.546;2023-01-13T10:27:33;99472.00;;;10.10
4421;BMP180;11824;51.178;13.546;2023-01-13T10:30:11;99465.00;;;10.10
4421;BMP180;11824;51.178;13.546;2023-01-13T10:32:40;99462.00;;;10.20
4421;BMP180;11824;51.178;13.546;2023-01-13T10:35:09;99462.00;;;10.20
4421;BMP180;11824;51.178;13.546;2023-01-13T10:37:36;99450.00;;;10.20
4421;BMP180;11824;51.178;13.546;2023-01-13T10:40:04;99451.00;;;10.30
4421;BMP180;11824;51.178;13.546;2023-01-13T10:42:42;99441.00;;;10.30
4421;BMP180;11824;51.178;13.546;2023-01-13T10:45:19;99449.00;;;10.40
4421;BMP180;11824;51.178;13.546;2023-01-13T10:48:04;99441.00;;;10.40
4421;BMP180;11824;51.178;13.546;2023-01-13T10:50:34;99444.00;;;10.40
4421;BMP180;11824;51.178;13.546;2023-01-13T10:53:16;99446.00;;;10.40
4421;BMP180;11824;51.178;13.546;2023-01-13T10:55:46;99447.00;;;10.50
4421;BMP180;11824;51.178;13.546;2023-01-13T10:58:24;99445.00;;;10.50
4421;BMP180;11824;51.178;13.546;2023-01-13T11:00:59;99435.00;;;10.60
4421;BMP180;11824;51.178;13.546;2023-01-13T11:03:35;99448.00;;;10.60
4421;BMP180;11824;51.178;13.546;2023-01-13T11:06:06;99462.00;;;10.60
4421;BMP180;11824;51.178;13.546;2023-01-13T11:08:40;99462.00;;;10.60
4421;BMP180;11824;51.178;13.546;2023-01-13T11:14:15;99462.00;;;10.60
4421;BMP180;11824;51.178;13.546;2023-01-13T11:17:04;99454.00;;;10.60
4421;BMP180;11824;51.178;13.546;2023-01-13T11:19:38;99457.00;;;10.60
4421;BMP180;11824;51.178;13.546;2023-01-13T11:22:10;99469.00;;;10.70
4421;BMP180;11824;51.178;13.546;2023-01-13T11:24:41;99473.00;;;10.70
4421;BMP180;11824;51.178;13.546;2023-01-13T11:27:14;99471.00;;;10.80
4421;BMP180;11824;51.178;13.546;2023-01-13T11:30:01;99473.00;;;10.80
4421;BMP180;11824;51.178;13.546;2023-01-13T11:32:33;99478.00;;;10.80
4421;BMP180;11824;51.178;13.546;2023-01-13T11:35:08;99466.00;;;10.80
4421;BMP180;11824;51.178;13.546;2023-01-13T11:37:42;99467.00;;;10.80
4421;BMP180;11824;51.178;13.546;2023-01-13T11:40:15;99464.00;;;10.80
4421;BMP180;11824;51.178;13.546;2023-01-13T11:42:48;99467.00;;;10.80
4421;BMP180;11824;51.178;13.546;2023-01-13T11:45:23;99476.00;;;10.80
4421;BMP180;11824;51.178;13.546;2023-01-13T11:47:57;99482.00;;;10.80
4421;BMP180;11824;51.178;13.546;2023-01-13T11:50:32;99483.00;;;10.80
4421;BMP180;11824;51.178;13.546;2023-01-13T11:53:16;99482.00;;;10.80
4421;BMP180;11824;51.178;13.546;2023-01-13T11:55:54;99493.00;;;10.80
4421;BMP180;11824;51.178;13.546;2023-01-13T11:58:44;99464.00;;;10.70
4421;BMP180;11824;51.178;13.546;2023-01-13T12:01:29;99465.00;;;10.70
4421;BMP180;11824;51.178;13.546;2023-01-13T12:04:15;99463.00;;;10.70
4421;BMP180;11824;51.178;13.546;2023-01-13T12:06:48;99449.00;;;10.70
4421;BMP180;11824;51.178;13.546;2023-01-13T12:09:34;99453.00;;;10.70
4421;BMP180;11824;51.178;13.546;2023-01-13T12:12:12;99463.00;;;10.70
4421;BMP180;11824;51.178;13.546;2023-01-13T12:15:21;99466.00;;;10.70
4421;BMP180;11824;51.178;13.546;2023-01-13T12:18:04;99460.00;;;10.70
4421;BMP180;11824;51.178;13.546;2023-01-13T12:20:39;99461.00;;;10.70
4421;BMP180;11824;51.178;13.546;2023-01-13T12:23:17;99453.00;;;10.80
4421;BMP180;11824;51.178;13.546;2023-01-13T12:25:53;99451.00;;;10.80
4421;BMP180;11824;51.178;13.546;2023-01-13T12:28:25;99468.00;;;10.80
4421;BMP180;11824;51.178;13.546;2023-01-13T12:30:57;99464.00;;;10.80
4421;BMP180;11824;51.178;13.546;2023-01-13T12:33:32;99452.00;;;10.80
4421;BMP180;11824;51.178;13.546;2023-01-13T12:36:10;99448.00;;;10.80
4421;BMP180;11824;51.178;13.546;2023-01-13T12:38:47;99446.00;;;10.80
4421;BMP180;11824;51.178;13.546;2023-01-13T12:41:21;99441.00;;;10.70
4421;BMP180;11824;51.178;13.546;2023-01-13T12:43:53;99446.00;;;10.70
4421;BMP180;11824;51.178;13.546;2023-01-13T12:46:48;99451.00;;;10.70
4421;BMP180;11824;51.178;13.546;2023-01-13T12:49:28;99455.00;;;10.60
4421;BMP180;11824;51.178;13.546;2023-01-13T12:52:16;99459.00;;;10.60
4421;BMP180;11824;51.178;13.546;2023-01-13T12:55:11;99460.00;;;10.60
4421;BMP180;11824;51.178;13.546;2023-01-13T12:57:53;99458.00;;;10.50
4421;BMP180;11824;51.178;13.546;2023-01-13T13:00:21;99454.00;;;10.50
4421;BMP180;11824;51.178;13.546;2023-01-13T13:03:17;99465.00;;;10.50
4421;BMP180;11824;51.178;13.546;2023-01-13T13:05:55;99470.00;;;10.50
4421;BMP180;11824;51.178;13.546;2023-01-13T13:08:37;99468.00;;;10.50
4421;BMP180;11824;51.178;13.546;2023-01-13T13:11:22;99468.00;;;10.50
4421;BMP180;11824;51.178;13.546;2023-01-13T13:14:58;99461.00;;;10.50
4421;BMP180;11824;51.178;13.546;2023-01-13T13:17:59;99468.00;;;10.50
4421;BMP180;11824;51.178;13.546;2023-01-13T13:20:53;99459.00;;;10.50
4421;BMP180;11824;51.178;13.546;2023-01-13T13:26:34;99471.00;;;10.40
4421;BMP180;11824;51.178;13.546;2023-01-13T13:38:17;99473.00;;;10.40
4421;BMP180;11824;51.178;13.546;2023-01-13T13:41:12;99459.00;;;10.30
4421;BMP180;11824;51.178;13.546;2023-01-13T13:44:01;99464.00;;;10.30
4421;BMP180;11824;51.178;13.546;2023-01-13T13:46:47;99462.00;;;10.30
4421;BMP180;11824;51.178;13.546;2023-01-13T13:49:17;99474.00;;;10.30
4421;BMP180;11824;51.178;13.546;2023-01-13T13:51:49;99476.00;;;10.20
4421;BMP180;11824;51.178;13.546;2023-01-13T13:54:21;99473.00;;;10.20
4421;BMP180;11824;51.178;13.546;2023-01-13T13:56:49;99474.00;;;10.20
4421;BMP180;11824;51.178;13.546;2023-01-13T13:59:19;99472.00;;;10.10
4421;BMP180;11824;51.178;13.546;2023-01-13T14:01:51;99469.00;;;10.10
4421;BMP180;11824;51.178;13.546;2023-01-13T14:04:27;99468.00;;;10.10
4421;BMP180;11824;51.178;13.546;2023-01-13T14:06:58;99462.00;;;10.10
4421;BMP180;11824;51.178;13.546;2023-01-13T14:09:36;99470.00;;;10.00
4421;BMP180;11824;51.178;13.546;2023-01-13T14:12:12;99480.00;;;10.00
4421;BMP180;11824;51.178;13.546;2023-01-13T14:14:42;99484.00;;;9.90
4421;BMP180;11824;51.178;13.546;2023-01-13T14:17:17;99489.00;;;9.90
4421;BMP180;11824;51.178;13.546;2023-01-13T14:19:51;99502.00;;;9.90
4421;BMP180;11824;51.178;13.546;2023-01-13T14:22:19;99511.00;;;9.80
4421;BMP180;11824;51.178;13.546;2023-01-13T14:24:48;99501.00;;;9.80
4421;BMP180;11824;51.178;13.546;2023-01-13T14:27:21;99504.00;;;9.70
4421;BMP180;11824;51.178;13.546;2023-01-13T14:29:51;99517.00;;;9.70
4421;BMP180;11824;51.178;13.546;2023-01-13T14:32:22;99522.00;;;9.70
4421;BMP180;11824;51.178;13.546;2023-01-13T14:34:51;99531.00;;;9.70
4421;BMP180;11824;51.178;13.546;2023-01-13T14:37:24;99533.00;;;9.70
4421;BMP180;11824;51.178;13.546;2023-01-13T14:39:53;99544.00;;;9.70
4421;BMP180;11824;51.178;13.546;2023-01-13T14:42:20;99541.00;;;9.70
4421;BMP180;11824;51.178;13.546;2023-01-13T14:44:49;99548.00;;;9.70
4421;BMP180;11824;51.178;13.546;2023-01-13T14:47:22;99562.00;;;9.70
4421;BMP180;11824;51.178;13.546;2023-01-13T14:50:03;99612.00;;;9.80
4421;BMP180;11824;51.178;13.546;2023-01-13T14:52:33;99574.00;;;9.70
4421;BMP180;11824;51.178;13.546;2023-01-13T14:55:21;99571.00;;;9.60